createdAt,value
2016-12-20T00:00:07.648Z,0
2016-12-20T00:01:16.366Z,0
2016-12-20T00:02:25.053Z,0
2016-12-20T00:03:33.744Z,0
2016-12-20T00:04:42.429Z,0
2016-12-20T00:05:51.117Z,0
2016-12-20T00:06:59.806Z,0
2016-12-20T00:08:08.501Z,0
2016-12-20T00:09:17.187Z,0
2016-12-20T00:10:25.889Z,0
2016-12-20T00:11:34.584Z,0
2016-12-20T00:12:43.589Z,0
2016-12-20T00:13:52.274Z,0
2016-12-20T00:15:00.962Z,0
2016-12-20T00:16:09.656Z,0
2016-12-20T00:17:18.342Z,0
2016-12-20T00:18:27.030Z,0
2016-12-20T00:19:35.717Z,0
2016-12-20T00:20:44.414Z,0
2016-12-20T00:21:53.103Z,0
2016-12-20T00:23:01.792Z,0
2016-12-20T00:24:10.485Z,0
2016-12-20T00:25:19.174Z,0
2016-12-20T00:26:27.863Z,0
2016-12-20T00:27:36.874Z,0
2016-12-20T00:28:45.889Z,0
2016-12-20T00:29:54.583Z,0
2016-12-20T00:31:03.299Z,0
2016-12-20T00:32:11.983Z,0
2016-12-20T00:33:20.672Z,0
2016-12-20T00:34:29.362Z,0
2016-12-20T00:35:38.051Z,0
2016-12-20T00:36:46.744Z,0
2016-12-20T00:37:55.432Z,0
2016-12-20T00:39:04.116Z,0
2016-12-20T00:40:12.802Z,0
2016-12-20T00:41:21.494Z,0
2016-12-20T00:42:30.183Z,0
2016-12-20T00:43:38.868Z,0
2016-12-20T00:44:47.555Z,0
2016-12-20T00:45:56.272Z,0
2016-12-20T00:47:04.955Z,0
2016-12-20T00:48:13.642Z,0
2016-12-20T00:49:22.326Z,0
2016-12-20T00:50:31.015Z,0
2016-12-20T00:51:39.705Z,0
2016-12-20T00:52:48.429Z,0
2016-12-20T00:53:57.138Z,0
2016-12-20T00:55:05.836Z,0
2016-12-20T00:56:14.528Z,0
2016-12-20T00:57:23.254Z,0
2016-12-20T00:58:31.947Z,0
2016-12-20T00:59:40.635Z,0
2016-12-20T01:00:49.352Z,0
2016-12-20T01:01:58.038Z,0
2016-12-20T01:03:07.043Z,0
2016-12-20T01:04:15.727Z,0
2016-12-20T01:05:24.415Z,0
2016-12-20T01:06:33.101Z,0
2016-12-20T01:07:41.784Z,0
2016-12-20T01:08:50.480Z,0
2016-12-20T01:09:59.171Z,0
2016-12-20T01:11:07.861Z,0
2016-12-20T01:12:16.583Z,0
2016-12-20T01:13:25.302Z,0
2016-12-20T01:14:33.990Z,0
2016-12-20T01:15:42.681Z,0
2016-12-20T01:16:51.374Z,0
2016-12-20T01:18:00.061Z,0
2016-12-20T01:19:08.745Z,0
2016-12-20T01:20:17.430Z,0
2016-12-20T01:21:26.116Z,0
2016-12-20T01:22:34.798Z,0
2016-12-20T01:23:43.487Z,0
2016-12-20T01:24:52.171Z,0
2016-12-20T01:26:00.858Z,0
2016-12-20T01:27:09.549Z,0
2016-12-20T01:28:18.234Z,0
2016-12-20T01:29:26.921Z,0
2016-12-20T01:30:35.610Z,0
2016-12-20T01:31:44.327Z,0
2016-12-20T01:32:53.016Z,0
2016-12-20T01:34:01.703Z,0
2016-12-20T01:35:10.390Z,0
2016-12-20T01:36:19.080Z,0
2016-12-20T01:37:27.772Z,0
2016-12-20T01:38:36.462Z,0
2016-12-20T01:39:45.153Z,0
2016-12-20T01:40:53.838Z,0
2016-12-20T01:42:02.522Z,0
2016-12-20T01:43:11.208Z,0
2016-12-20T01:44:20.224Z,0
2016-12-20T01:45:28.914Z,0
2016-12-20T01:46:37.601Z,0
2016-12-20T01:47:46.290Z,0
2016-12-20T01:48:54.982Z,0
2016-12-20T01:50:03.668Z,0
2016-12-20T01:51:12.357Z,0
2016-12-20T01:52:21.050Z,0
2016-12-20T01:53:29.745Z,0
2016-12-20T01:54:38.435Z,0
2016-12-20T01:55:47.124Z,0
2016-12-20T01:56:55.819Z,0
2016-12-20T01:58:04.516Z,0
2016-12-20T01:59:13.207Z,0
2016-12-20T02:00:21.900Z,0
2016-12-20T02:01:30.588Z,0
2016-12-20T02:02:39.275Z,0
2016-12-20T02:03:47.964Z,0
2016-12-20T02:04:56.648Z,0
2016-12-20T02:06:05.342Z,0
2016-12-20T02:07:14.085Z,0
2016-12-20T02:08:22.777Z,0
2016-12-20T02:09:31.463Z,0
2016-12-20T02:10:40.154Z,0
2016-12-20T02:11:48.845Z,0
2016-12-20T02:12:57.533Z,0
2016-12-20T02:14:06.224Z,0
2016-12-20T02:15:14.911Z,0
2016-12-20T02:16:23.599Z,0
2016-12-20T02:17:32.286Z,0
2016-12-20T02:18:40.976Z,0
2016-12-20T02:19:49.702Z,0
2016-12-20T02:20:58.394Z,0
2016-12-20T02:22:07.084Z,0
2016-12-20T02:23:15.769Z,0
2016-12-20T02:24:24.458Z,0
2016-12-20T02:25:33.149Z,0
2016-12-20T02:26:41.836Z,0
2016-12-20T02:27:50.523Z,0
2016-12-20T02:28:59.219Z,0
2016-12-20T02:30:07.906Z,0
2016-12-20T02:31:16.593Z,0
2016-12-20T02:32:25.287Z,0
2016-12-20T02:33:33.981Z,0
2016-12-20T02:34:42.673Z,0
2016-12-20T02:35:51.372Z,0
2016-12-20T02:37:00.057Z,0
2016-12-20T02:38:09.059Z,0
2016-12-20T02:39:17.757Z,0
2016-12-20T02:40:26.762Z,0
2016-12-20T02:41:35.449Z,0
2016-12-20T02:42:44.459Z,0
2016-12-20T02:43:53.151Z,0
2016-12-20T02:45:01.841Z,0
2016-12-20T02:46:10.543Z,0
2016-12-20T02:47:19.234Z,0
2016-12-20T02:48:27.923Z,0
2016-12-20T02:49:36.610Z,0
2016-12-20T02:50:45.298Z,0
2016-12-20T02:51:53.996Z,0
2016-12-20T02:53:02.683Z,0
2016-12-20T02:54:11.378Z,0
2016-12-20T02:55:20.068Z,0
2016-12-20T02:56:28.755Z,0
2016-12-20T02:57:37.478Z,0
2016-12-20T02:58:46.165Z,0
2016-12-20T02:59:54.871Z,0
2016-12-20T03:01:03.558Z,0
2016-12-20T03:02:12.250Z,0
2016-12-20T03:03:20.936Z,0
2016-12-20T03:04:29.625Z,0
2016-12-20T03:05:38.314Z,0
2016-12-20T03:06:47.002Z,0
2016-12-20T03:07:55.722Z,0
2016-12-20T03:09:04.410Z,0
2016-12-20T03:10:13.247Z,0
2016-12-20T03:11:21.947Z,0
2016-12-20T03:12:30.643Z,0
2016-12-20T03:13:39.328Z,0
2016-12-20T03:14:48.016Z,0
2016-12-20T03:15:56.703Z,0
2016-12-20T03:17:05.402Z,0
2016-12-20T03:18:14.091Z,0
2016-12-20T03:19:22.781Z,0
2016-12-20T03:20:31.480Z,0
2016-12-20T03:21:40.168Z,0
2016-12-20T03:22:48.859Z,0
2016-12-20T03:23:57.553Z,0
2016-12-20T03:25:06.241Z,0
2016-12-20T03:26:15.277Z,0
2016-12-20T03:27:23.965Z,0
2016-12-20T03:28:32.653Z,0
2016-12-20T03:29:41.342Z,0
2016-12-20T03:30:50.028Z,0
2016-12-20T03:31:58.734Z,0
2016-12-20T03:33:07.424Z,0
2016-12-20T03:34:16.119Z,0
2016-12-20T03:35:24.808Z,0
2016-12-20T03:36:33.496Z,0
2016-12-20T03:37:42.184Z,0
2016-12-20T03:38:50.874Z,0
2016-12-20T03:39:59.600Z,0
2016-12-20T03:41:08.294Z,0
2016-12-20T03:42:16.981Z,0
2016-12-20T03:43:25.668Z,0
2016-12-20T03:44:34.361Z,0
2016-12-20T03:45:43.053Z,0
2016-12-20T03:46:51.749Z,0
2016-12-20T03:48:00.439Z,0
2016-12-20T03:49:09.158Z,0
2016-12-20T03:50:17.850Z,0
2016-12-20T03:51:26.543Z,0
2016-12-20T03:52:35.232Z,0
2016-12-20T03:53:43.954Z,0
2016-12-20T03:54:52.644Z,0
2016-12-20T03:56:01.333Z,0
2016-12-20T03:57:10.338Z,0
2016-12-20T03:58:19.033Z,0
2016-12-20T03:59:27.717Z,0
2016-12-20T04:00:36.422Z,0
2016-12-20T04:01:45.165Z,0
2016-12-20T04:02:53.850Z,0
2016-12-20T04:04:02.544Z,0
2016-12-20T04:05:11.238Z,0
2016-12-20T04:06:19.928Z,0
2016-12-20T04:07:28.622Z,0
2016-12-20T04:08:37.309Z,0
2016-12-20T04:09:46.004Z,0
2016-12-20T04:10:54.701Z,0
2016-12-20T04:12:03.392Z,0
2016-12-20T04:13:12.089Z,0
2016-12-20T04:14:20.780Z,0
2016-12-20T04:15:29.476Z,0
2016-12-20T04:16:38.168Z,0
2016-12-20T04:17:46.859Z,0
2016-12-20T04:18:55.896Z,0
2016-12-20T04:20:04.591Z,0
2016-12-20T04:21:13.280Z,0
2016-12-20T04:22:21.966Z,0
2016-12-20T04:23:30.657Z,0
2016-12-20T04:24:39.348Z,0
2016-12-20T04:25:48.035Z,0
2016-12-20T04:26:56.728Z,0
2016-12-20T04:28:05.420Z,0
2016-12-20T04:29:14.426Z,0
2016-12-20T04:30:23.126Z,0
2016-12-20T04:31:31.818Z,0
2016-12-20T04:32:40.504Z,0
2016-12-20T04:33:49.207Z,0
2016-12-20T04:34:57.904Z,0
2016-12-20T04:36:06.906Z,0
2016-12-20T04:37:15.592Z,0
2016-12-20T04:38:24.599Z,0
2016-12-20T04:39:33.285Z,0
2016-12-20T04:40:41.981Z,0
2016-12-20T04:41:50.683Z,0
2016-12-20T04:42:59.373Z,0
2016-12-20T04:44:08.063Z,0
2016-12-20T04:45:16.746Z,0
2016-12-20T04:46:25.432Z,0
2016-12-20T04:47:34.125Z,0
2016-12-20T04:48:42.812Z,0
2016-12-20T04:49:51.504Z,0
2016-12-20T04:51:00.196Z,0
2016-12-20T04:52:08.894Z,0
2016-12-20T04:53:17.586Z,0
2016-12-20T04:54:26.272Z,0
2016-12-20T04:55:34.961Z,0
2016-12-20T04:56:43.661Z,0
2016-12-20T04:57:52.349Z,0
2016-12-20T04:59:01.046Z,0
2016-12-20T05:00:09.739Z,0
2016-12-20T05:01:18.431Z,0
2016-12-20T05:02:27.118Z,0
2016-12-20T05:03:35.805Z,0
2016-12-20T05:04:44.495Z,0
2016-12-20T05:05:53.179Z,0
2016-12-20T05:07:01.865Z,0
2016-12-20T05:08:10.554Z,0
2016-12-20T05:09:19.244Z,0
2016-12-20T05:10:27.933Z,0
2016-12-20T05:11:36.620Z,0
2016-12-20T05:12:45.311Z,0
2016-12-20T05:13:54.000Z,0
2016-12-20T05:15:02.690Z,0
2016-12-20T05:16:11.377Z,0
2016-12-20T05:17:20.071Z,0
2016-12-20T05:18:28.767Z,0
2016-12-20T05:19:37.485Z,0
2016-12-20T05:20:46.178Z,0
2016-12-20T05:21:54.865Z,0
2016-12-20T05:23:03.555Z,0
2016-12-20T05:24:12.247Z,0
2016-12-20T05:25:20.934Z,0
2016-12-20T05:26:29.617Z,0
2016-12-20T05:27:38.338Z,0
2016-12-20T05:28:47.028Z,0
2016-12-20T05:29:55.721Z,0
2016-12-20T05:31:04.415Z,0
2016-12-20T05:32:13.102Z,0
2016-12-20T05:33:21.790Z,0
2016-12-20T05:34:30.478Z,0
2016-12-20T05:35:39.169Z,0
2016-12-20T05:36:47.869Z,0
2016-12-20T05:37:56.874Z,0
2016-12-20T05:39:05.566Z,0
2016-12-20T05:40:14.258Z,0
2016-12-20T05:41:22.949Z,0
2016-12-20T05:42:31.633Z,0
2016-12-20T05:43:40.351Z,0
2016-12-20T05:44:49.044Z,0
2016-12-20T05:45:57.730Z,0
2016-12-20T05:47:06.418Z,0
2016-12-20T05:48:15.108Z,0
2016-12-20T05:49:23.802Z,0
2016-12-20T05:50:32.519Z,0
2016-12-20T05:51:41.213Z,0
2016-12-20T05:52:49.905Z,0
2016-12-20T05:53:58.627Z,0
2016-12-20T05:55:07.321Z,0
2016-12-20T05:56:16.044Z,0
2016-12-20T05:57:24.738Z,0
2016-12-20T05:58:33.453Z,0
2016-12-20T05:59:42.148Z,0
2016-12-20T06:00:50.838Z,0
2016-12-20T06:01:59.529Z,0
2016-12-20T06:03:08.219Z,0
2016-12-20T06:04:17.222Z,0
2016-12-20T06:05:25.917Z,0
2016-12-20T06:06:34.609Z,0
2016-12-20T06:07:43.297Z,0
2016-12-20T06:08:51.993Z,0
2016-12-20T06:10:00.686Z,0
2016-12-20T06:11:09.377Z,0
2016-12-20T06:12:18.068Z,0
2016-12-20T06:13:26.763Z,0
2016-12-20T06:14:35.452Z,0
2016-12-20T06:15:44.139Z,0
2016-12-20T06:16:52.836Z,0
2016-12-20T06:18:01.522Z,0
2016-12-20T06:19:10.534Z,0
2016-12-20T06:20:19.223Z,0
2016-12-20T06:21:27.911Z,0
2016-12-20T06:22:36.597Z,0
2016-12-20T06:23:45.287Z,0
2016-12-20T06:24:53.981Z,0
2016-12-20T06:26:02.669Z,0
2016-12-20T06:27:11.358Z,0
2016-12-20T06:28:20.044Z,0
2016-12-20T06:29:28.737Z,0
2016-12-20T06:30:37.426Z,0
2016-12-20T06:31:46.126Z,0
2016-12-20T06:32:54.817Z,0
2016-12-20T06:34:03.501Z,0
2016-12-20T06:35:12.197Z,0
2016-12-20T06:36:20.888Z,0
2016-12-20T06:37:29.575Z,0
2016-12-20T06:38:38.265Z,0
2016-12-20T06:39:46.956Z,0
2016-12-20T06:40:55.645Z,0
2016-12-20T06:42:04.339Z,0
2016-12-20T06:43:13.054Z,0
2016-12-20T06:44:21.740Z,0
2016-12-20T06:45:30.429Z,0
2016-12-20T06:46:39.114Z,0
2016-12-20T06:47:47.805Z,0
2016-12-20T06:48:56.826Z,0
2016-12-20T06:50:05.511Z,0
2016-12-20T06:51:14.197Z,0
2016-12-20T06:52:22.891Z,0
2016-12-20T06:53:31.577Z,0
2016-12-20T06:54:40.265Z,0
2016-12-20T06:55:48.962Z,0
2016-12-20T06:56:57.652Z,0
2016-12-20T06:58:06.340Z,0
2016-12-20T06:59:15.038Z,0
2016-12-20T07:00:23.760Z,0
2016-12-20T07:01:32.459Z,0
2016-12-20T07:02:41.143Z,0
2016-12-20T07:03:49.851Z,0
2016-12-20T07:04:58.933Z,0
2016-12-20T07:06:07.624Z,0
2016-12-20T07:07:16.313Z,0
2016-12-20T07:08:25.002Z,0
2016-12-20T07:09:33.690Z,0
2016-12-20T07:10:42.378Z,0
2016-12-20T07:11:51.069Z,0
2016-12-20T07:12:59.761Z,0
2016-12-20T07:14:08.453Z,0
2016-12-20T07:15:17.142Z,0
2016-12-20T07:16:25.833Z,0
2016-12-20T07:17:34.524Z,0
2016-12-20T07:18:43.244Z,0
2016-12-20T07:19:51.933Z,0
2016-12-20T07:21:00.625Z,0
2016-12-20T07:22:09.629Z,0
2016-12-20T07:23:18.321Z,0
2016-12-20T07:24:27.024Z,0
2016-12-20T07:25:35.729Z,0
2016-12-20T07:26:44.420Z,0
2016-12-20T07:27:53.108Z,0
2016-12-20T07:29:01.800Z,0
2016-12-20T07:30:10.492Z,0
2016-12-20T07:31:19.179Z,0
2016-12-20T07:32:27.911Z,0
2016-12-20T07:33:36.599Z,0
2016-12-20T07:34:45.292Z,0
2016-12-20T07:35:53.975Z,0
2016-12-20T07:37:02.681Z,0
2016-12-20T07:38:11.369Z,0
2016-12-20T07:39:20.058Z,0
2016-12-20T07:40:28.749Z,0
2016-12-20T07:41:37.755Z,0
2016-12-20T07:42:46.442Z,0
2016-12-20T07:43:55.132Z,0
2016-12-20T07:45:03.821Z,0
2016-12-20T07:46:12.528Z,0
2016-12-20T07:47:21.216Z,0
2016-12-20T07:48:29.902Z,0
2016-12-20T07:49:38.593Z,0
2016-12-20T07:50:47.281Z,0
2016-12-20T07:51:55.978Z,0
2016-12-20T07:53:04.671Z,0
2016-12-20T07:54:13.359Z,0
2016-12-20T07:55:22.049Z,0
2016-12-20T07:56:30.739Z,0
2016-12-20T07:57:39.432Z,0
2016-12-20T07:58:48.118Z,0
2016-12-20T07:59:56.805Z,0
2016-12-20T08:01:05.492Z,0
2016-12-20T08:02:14.185Z,0
2016-12-20T08:03:22.877Z,0
2016-12-20T08:04:31.585Z,0
2016-12-20T08:05:40.269Z,0
2016-12-20T08:06:48.956Z,0
2016-12-20T08:07:57.646Z,0
2016-12-20T08:09:06.337Z,0
2016-12-20T08:10:15.025Z,0
2016-12-20T08:11:23.718Z,0
2016-12-20T08:12:32.409Z,0
2016-12-20T08:13:41.099Z,5
2016-12-20T08:14:49.788Z,5
2016-12-20T08:15:58.478Z,5
2016-12-20T08:17:07.173Z,5
2016-12-20T08:18:15.858Z,5
2016-12-20T08:19:24.544Z,5
2016-12-20T08:20:33.235Z,5
2016-12-20T08:21:41.923Z,5
2016-12-20T08:22:50.607Z,5
2016-12-20T08:23:59.298Z,5
2016-12-20T08:25:08.299Z,5
2016-12-20T08:26:17.012Z,5
2016-12-20T08:27:25.701Z,5
2016-12-20T08:28:34.392Z,5
2016-12-20T08:29:43.428Z,10
2016-12-20T08:30:52.150Z,10
2016-12-20T08:32:00.836Z,10
2016-12-20T08:33:09.529Z,10
2016-12-20T08:34:18.214Z,10
2016-12-20T08:35:26.903Z,10
2016-12-20T08:36:35.942Z,10
2016-12-20T08:37:44.633Z,10
2016-12-20T08:38:53.327Z,15
2016-12-20T08:40:02.015Z,15
2016-12-20T08:41:10.707Z,15
2016-12-20T08:42:19.427Z,15
2016-12-20T08:43:28.114Z,15
2016-12-20T08:44:36.808Z,15
2016-12-20T08:45:46.150Z,15
2016-12-20T08:46:54.834Z,20
2016-12-20T08:48:03.560Z,20
2016-12-20T08:49:12.253Z,20
2016-12-20T08:50:20.942Z,20
2016-12-20T08:51:29.632Z,20
2016-12-20T08:52:38.321Z,25
2016-12-20T08:53:47.016Z,25
2016-12-20T08:54:55.701Z,25
2016-12-20T08:56:04.393Z,30
2016-12-20T08:57:13.083Z,30
2016-12-20T08:58:21.798Z,30
2016-12-20T08:59:30.494Z,30
2016-12-20T09:00:39.181Z,35
2016-12-20T09:01:47.865Z,30
2016-12-20T09:02:56.558Z,30
2016-12-20T09:04:05.245Z,30
2016-12-20T09:05:13.943Z,30
2016-12-20T09:06:22.633Z,30
2016-12-20T09:07:31.325Z,30
2016-12-20T09:08:40.014Z,35
2016-12-20T09:09:48.705Z,35
2016-12-20T09:10:57.404Z,35
2016-12-20T09:12:06.094Z,35
2016-12-20T09:13:14.777Z,35
2016-12-20T09:14:23.473Z,40
2016-12-20T09:15:32.162Z,40
2016-12-20T09:16:40.852Z,40
2016-12-20T09:17:49.544Z,40
2016-12-20T09:18:58.235Z,40
2016-12-20T09:20:07.241Z,40
2016-12-20T09:21:15.928Z,40
2016-12-20T09:22:24.617Z,40
2016-12-20T09:23:33.303Z,40
2016-12-20T09:24:41.996Z,45
2016-12-20T09:25:50.684Z,45
2016-12-20T09:26:59.372Z,50
2016-12-20T09:28:08.079Z,55
2016-12-20T09:29:16.775Z,55
2016-12-20T09:30:25.466Z,55
2016-12-20T09:31:34.152Z,50
2016-12-20T09:32:42.875Z,45
2016-12-20T09:35:07.723Z,45
2016-12-20T09:36:16.438Z,45
2016-12-20T09:37:25.138Z,45
2016-12-20T09:38:33.827Z,45
2016-12-20T09:39:42.519Z,45
2016-12-20T09:40:51.214Z,45
2016-12-20T09:41:59.900Z,45
2016-12-20T09:43:08.589Z,45
2016-12-20T09:44:17.279Z,45
2016-12-20T09:45:25.962Z,50
2016-12-20T09:46:34.664Z,50
2016-12-20T09:47:43.353Z,50
2016-12-20T09:48:52.046Z,55
2016-12-20T09:50:00.736Z,60
2016-12-20T09:51:09.425Z,65
2016-12-20T09:52:18.117Z,70
2016-12-20T09:53:26.804Z,70
2016-12-20T09:54:35.489Z,75
2016-12-20T09:55:44.182Z,75
2016-12-20T09:56:52.897Z,75
2016-12-20T09:58:01.595Z,75
2016-12-20T09:59:10.315Z,75
2016-12-20T10:00:19.004Z,80
2016-12-20T10:01:27.709Z,80
2016-12-20T10:02:36.399Z,85
2016-12-20T10:03:45.093Z,80
2016-12-20T10:04:53.784Z,80
2016-12-20T10:06:02.473Z,75
2016-12-20T10:07:11.201Z,70
2016-12-20T10:08:19.889Z,65
2016-12-20T10:09:28.635Z,65
2016-12-20T10:10:37.320Z,70
2016-12-20T10:11:46.008Z,65
2016-12-20T10:12:54.698Z,65
2016-12-20T10:14:03.392Z,65
2016-12-20T10:15:12.180Z,65
2016-12-20T10:16:20.895Z,65
2016-12-20T10:17:29.584Z,65
2016-12-20T10:18:38.276Z,70
2016-12-20T10:19:46.961Z,70
2016-12-20T10:20:55.647Z,70
2016-12-20T10:22:04.343Z,75
2016-12-20T10:23:13.035Z,80
2016-12-20T10:24:21.731Z,95
2016-12-20T10:25:30.425Z,85
2016-12-20T10:26:39.110Z,80
2016-12-20T10:27:47.801Z,75
2016-12-20T10:28:56.486Z,75
2016-12-20T10:30:05.181Z,75
2016-12-20T10:31:13.867Z,75
2016-12-20T10:32:22.566Z,75
2016-12-20T10:33:31.252Z,75
2016-12-20T10:34:39.943Z,75
2016-12-20T10:35:48.627Z,70
2016-12-20T10:36:57.318Z,70
2016-12-20T10:38:06.008Z,70
2016-12-20T10:39:14.700Z,70
2016-12-20T10:40:23.392Z,70
2016-12-20T10:41:32.079Z,70
2016-12-20T10:42:40.768Z,70
2016-12-20T10:43:49.452Z,70
2016-12-20T10:44:58.140Z,70
2016-12-20T10:46:06.828Z,75
2016-12-20T10:47:15.520Z,75
2016-12-20T10:48:24.208Z,80
2016-12-20T10:49:32.900Z,80
2016-12-20T10:50:41.610Z,80
2016-12-20T10:51:50.300Z,85
2016-12-20T10:52:58.990Z,85
2016-12-20T10:55:22.353Z,95
2016-12-20T10:56:31.043Z,95
2016-12-20T10:57:39.731Z,100
2016-12-20T10:58:48.415Z,105
2016-12-20T10:59:57.111Z,125
2016-12-20T11:01:05.803Z,130
2016-12-20T11:02:14.491Z,140
2016-12-20T11:03:23.179Z,155
2016-12-20T11:04:31.876Z,150
2016-12-20T11:05:40.560Z,145
2016-12-20T11:06:49.253Z,145
2016-12-20T11:07:57.949Z,140
2016-12-20T11:09:06.641Z,145
2016-12-20T11:10:15.644Z,135
2016-12-20T11:11:24.327Z,135
2016-12-20T11:12:33.023Z,140
2016-12-20T11:13:41.708Z,140
2016-12-20T11:14:50.392Z,145
2016-12-20T11:15:59.090Z,140
2016-12-20T11:17:07.777Z,125
2016-12-20T11:18:16.464Z,125
2016-12-20T11:19:25.156Z,115
2016-12-20T11:20:33.856Z,135
2016-12-20T11:21:42.548Z,125
2016-12-20T11:22:51.243Z,95
2016-12-20T11:23:59.938Z,95
2016-12-20T11:25:08.626Z,95
2016-12-20T11:26:17.314Z,95
2016-12-20T11:27:26.006Z,90
2016-12-20T11:28:34.702Z,90
2016-12-20T11:29:43.398Z,90
2016-12-20T11:30:52.084Z,90
2016-12-20T11:32:00.775Z,90
2016-12-20T11:33:09.474Z,90
2016-12-20T11:34:18.168Z,95
2016-12-20T11:35:26.859Z,95
2016-12-20T11:36:35.553Z,100
2016-12-20T11:37:44.242Z,100
2016-12-20T11:38:52.931Z,105
2016-12-20T11:40:01.621Z,105
2016-12-20T11:41:10.340Z,110
2016-12-20T11:42:19.031Z,110
2016-12-20T11:43:27.721Z,110
2016-12-20T11:44:36.409Z,115
2016-12-20T11:45:45.095Z,120
2016-12-20T11:46:53.789Z,115
2016-12-20T11:48:02.480Z,105
2016-12-20T11:49:11.172Z,95
2016-12-20T11:50:19.863Z,95
2016-12-20T11:51:28.554Z,100
2016-12-20T11:52:37.243Z,100
2016-12-20T11:53:45.938Z,110
2016-12-20T11:54:54.634Z,100
2016-12-20T11:56:03.337Z,95
2016-12-20T11:57:12.031Z,105
2016-12-20T11:58:20.724Z,90
2016-12-20T11:59:29.410Z,100
2016-12-20T12:00:38.101Z,100
2016-12-20T12:01:46.846Z,100
2016-12-20T12:02:55.538Z,100
2016-12-20T12:04:04.229Z,95
2016-12-20T12:05:12.924Z,90
2016-12-20T12:06:21.614Z,90
2016-12-20T12:07:30.303Z,95
2016-12-20T12:08:39.002Z,95
2016-12-20T12:09:47.698Z,95
2016-12-20T12:10:56.390Z,95
2016-12-20T12:12:05.084Z,90
2016-12-20T12:13:13.770Z,90
2016-12-20T12:14:22.469Z,90
2016-12-20T12:15:31.160Z,90
2016-12-20T12:16:39.885Z,90
2016-12-20T12:17:48.583Z,90
2016-12-20T12:18:57.271Z,85
2016-12-20T12:20:06.288Z,80
2016-12-20T12:21:14.982Z,80
2016-12-20T12:22:23.674Z,85
2016-12-20T12:23:32.371Z,85
2016-12-20T12:24:41.064Z,75
2016-12-20T12:25:49.753Z,75
2016-12-20T12:26:58.443Z,80
2016-12-20T12:28:07.137Z,85
2016-12-20T12:29:15.832Z,85
2016-12-20T12:30:24.520Z,85
2016-12-20T12:31:33.210Z,85
2016-12-20T12:32:41.900Z,80
2016-12-20T12:33:50.586Z,80
2016-12-20T12:34:59.275Z,75
2016-12-20T12:36:07.964Z,75
2016-12-20T12:37:16.659Z,80
2016-12-20T12:38:25.357Z,75
2016-12-20T12:39:34.040Z,75
2016-12-20T12:40:42.730Z,70
2016-12-20T12:41:51.421Z,70
2016-12-20T12:43:00.111Z,70
2016-12-20T12:44:08.809Z,65
2016-12-20T12:45:17.495Z,65
2016-12-20T12:46:26.185Z,70
2016-12-20T12:47:34.877Z,65
2016-12-20T12:48:43.567Z,65
2016-12-20T12:49:52.253Z,65
2016-12-20T12:51:00.944Z,65
2016-12-20T12:52:09.632Z,65
2016-12-20T12:53:18.326Z,60
2016-12-20T12:54:27.054Z,65
2016-12-20T12:55:35.741Z,65
2016-12-20T12:56:44.435Z,60
2016-12-20T12:57:53.128Z,60
2016-12-20T12:59:01.822Z,65
2016-12-20T13:00:10.512Z,60
2016-12-20T13:01:19.201Z,55
2016-12-20T13:02:27.915Z,55
2016-12-20T13:03:36.601Z,50
2016-12-20T13:04:45.292Z,45
2016-12-20T13:05:53.975Z,40
2016-12-20T13:07:02.979Z,40
2016-12-20T13:08:11.677Z,40
2016-12-20T13:09:20.406Z,40
2016-12-20T13:10:29.105Z,40
2016-12-20T13:11:37.805Z,40
2016-12-20T13:12:46.489Z,40
2016-12-20T13:13:55.178Z,40
2016-12-20T13:15:03.871Z,35
2016-12-20T13:16:12.562Z,40
2016-12-20T13:17:21.266Z,40
2016-12-20T13:18:29.963Z,40
2016-12-20T13:19:38.652Z,40
2016-12-20T13:20:47.344Z,40
2016-12-20T13:21:56.040Z,45
2016-12-20T13:23:04.737Z,40
2016-12-20T13:24:13.747Z,35
2016-12-20T13:25:22.436Z,35
2016-12-20T13:26:31.444Z,40
2016-12-20T13:27:40.161Z,35
2016-12-20T13:28:48.852Z,30
2016-12-20T13:29:57.543Z,30
2016-12-20T13:31:06.238Z,30
2016-12-20T13:32:14.928Z,30
2016-12-20T13:33:23.623Z,25
2016-12-20T13:34:32.318Z,25
2016-12-20T13:35:41.008Z,25
2016-12-20T13:36:49.696Z,25
2016-12-20T13:37:58.386Z,25
2016-12-20T13:39:07.071Z,20
2016-12-20T13:40:15.765Z,20
2016-12-20T13:41:24.457Z,20
2016-12-20T13:42:33.145Z,20
2016-12-20T13:43:41.839Z,20
2016-12-20T13:44:50.536Z,20
2016-12-20T13:45:59.232Z,15
2016-12-20T13:47:07.922Z,15
2016-12-20T13:48:16.609Z,15
2016-12-20T13:49:25.297Z,15
2016-12-20T13:50:33.987Z,15
2016-12-20T13:51:42.680Z,15
2016-12-20T13:52:51.368Z,10
2016-12-20T13:54:00.067Z,10
2016-12-20T13:55:08.758Z,10
2016-12-20T13:56:17.448Z,10
2016-12-20T13:57:26.141Z,10
2016-12-20T13:58:34.831Z,10
2016-12-20T13:59:43.519Z,10
2016-12-20T14:00:52.214Z,10
2016-12-20T14:02:00.910Z,5
2016-12-20T14:03:09.606Z,5
2016-12-20T14:04:18.298Z,5
2016-12-20T14:05:26.992Z,5
2016-12-20T14:06:35.684Z,5
2016-12-20T14:07:44.371Z,5
2016-12-20T14:08:53.074Z,5
2016-12-20T14:10:01.764Z,5
2016-12-20T14:11:10.452Z,5
2016-12-20T14:12:19.143Z,5
2016-12-20T14:13:27.832Z,5
2016-12-20T14:14:36.519Z,5
2016-12-20T14:15:45.240Z,5
2016-12-20T14:16:54.341Z,5
2016-12-20T14:18:03.032Z,0
2016-12-20T14:19:11.719Z,0
2016-12-20T14:20:20.419Z,0
2016-12-20T14:21:29.110Z,0
2016-12-20T14:22:37.801Z,0
2016-12-20T14:23:46.492Z,0
2016-12-20T14:24:55.183Z,0
2016-12-20T14:26:03.876Z,0
2016-12-20T14:27:12.570Z,0
2016-12-20T14:28:21.265Z,0
2016-12-20T14:29:29.957Z,0
2016-12-20T14:30:38.642Z,0
2016-12-20T14:31:47.329Z,0
2016-12-20T14:32:56.020Z,0
2016-12-20T14:34:04.713Z,0
2016-12-20T14:35:13.402Z,0
2016-12-20T14:36:22.090Z,0
2016-12-20T14:37:30.781Z,0
2016-12-20T14:38:39.481Z,0
2016-12-20T14:39:48.180Z,0
2016-12-20T14:40:56.871Z,0
2016-12-20T14:42:05.570Z,0
2016-12-20T14:43:14.259Z,0
2016-12-20T14:44:23.002Z,0
2016-12-20T14:45:31.689Z,0
2016-12-20T14:46:40.380Z,0
2016-12-20T14:47:49.078Z,0
2016-12-20T14:48:57.769Z,0
2016-12-20T14:50:06.816Z,0
2016-12-20T14:51:15.503Z,0
2016-12-20T14:52:24.197Z,0
2016-12-20T14:53:32.893Z,0
2016-12-20T14:54:41.893Z,0
2016-12-20T14:55:50.733Z,0
2016-12-20T14:56:59.430Z,0
2016-12-20T14:58:08.122Z,0
2016-12-20T14:59:16.815Z,0
2016-12-20T15:00:25.503Z,0
2016-12-20T15:01:34.194Z,0
2016-12-20T15:02:42.907Z,0
2016-12-20T15:03:51.600Z,0
2016-12-20T15:05:00.603Z,0
2016-12-20T15:06:09.303Z,0
2016-12-20T15:07:17.993Z,0
2016-12-20T15:08:26.679Z,0
2016-12-20T15:09:35.372Z,0
2016-12-20T15:10:44.059Z,0
2016-12-20T15:11:52.754Z,0
2016-12-20T15:13:01.446Z,0
2016-12-20T15:14:10.144Z,0
2016-12-20T15:15:18.838Z,0
2016-12-20T15:16:27.525Z,0
2016-12-20T15:17:36.217Z,0
2016-12-20T15:18:44.905Z,0
2016-12-20T15:19:53.593Z,0
2016-12-20T15:21:02.279Z,0
2016-12-20T15:22:10.975Z,0
2016-12-20T15:23:19.983Z,0
2016-12-20T15:24:28.669Z,0
2016-12-20T15:25:37.421Z,0
2016-12-20T15:26:46.114Z,0
2016-12-20T15:27:54.807Z,0
2016-12-20T15:29:03.500Z,0
2016-12-20T15:30:12.197Z,0
2016-12-20T15:31:20.884Z,0
2016-12-20T15:32:29.575Z,0
2016-12-20T15:33:38.264Z,0
2016-12-20T15:34:46.957Z,0
2016-12-20T15:35:55.650Z,0
2016-12-20T15:37:04.341Z,0
2016-12-20T15:38:13.036Z,0
2016-12-20T15:39:21.734Z,0
2016-12-20T15:40:30.425Z,0
2016-12-20T15:41:39.118Z,0
2016-12-20T15:42:47.814Z,0
2016-12-20T15:43:56.508Z,0
2016-12-20T15:45:05.208Z,0
2016-12-20T15:46:13.899Z,0
2016-12-20T15:47:22.591Z,0
2016-12-20T15:48:31.282Z,0
2016-12-20T15:49:39.975Z,0
2016-12-20T15:50:48.666Z,0
2016-12-20T15:51:57.358Z,0
2016-12-20T15:53:06.047Z,0
2016-12-20T15:54:14.741Z,0
2016-12-20T15:55:23.434Z,0
2016-12-20T15:56:32.126Z,0
2016-12-20T15:57:40.816Z,0
2016-12-20T15:58:49.507Z,0
2016-12-20T15:59:58.226Z,0
2016-12-20T16:01:06.922Z,0
2016-12-20T16:02:15.611Z,0
2016-12-20T16:03:24.305Z,0
2016-12-20T16:04:33.004Z,0
2016-12-20T16:05:41.695Z,0
2016-12-20T16:06:50.393Z,0
2016-12-20T16:07:59.085Z,0
2016-12-20T16:09:07.774Z,0
2016-12-20T16:10:16.465Z,0
2016-12-20T16:11:25.464Z,0
2016-12-20T16:12:34.155Z,0
2016-12-20T16:13:42.849Z,0
2016-12-20T16:14:51.545Z,0
2016-12-20T16:16:00.240Z,0
2016-12-20T16:17:08.929Z,0
2016-12-20T16:18:17.617Z,0
2016-12-20T16:19:26.313Z,0
2016-12-20T16:20:35.030Z,0
2016-12-20T16:21:43.719Z,0
2016-12-20T16:22:52.415Z,0
2016-12-20T16:24:01.107Z,0
2016-12-20T16:25:09.793Z,0
2016-12-20T16:26:18.488Z,0
2016-12-20T16:27:27.178Z,0
2016-12-20T16:28:35.869Z,0
2016-12-20T16:29:44.556Z,0
2016-12-20T16:30:53.250Z,0
2016-12-20T16:32:01.942Z,0
2016-12-20T16:33:10.627Z,0
2016-12-20T16:34:19.316Z,0
2016-12-20T16:35:28.012Z,0
2016-12-20T16:36:36.710Z,0
2016-12-20T16:37:45.738Z,0
2016-12-20T16:38:54.432Z,0
2016-12-20T16:40:03.149Z,0
2016-12-20T16:41:11.847Z,0
2016-12-20T16:42:20.554Z,0
2016-12-20T16:43:29.256Z,0
2016-12-20T16:44:37.945Z,0